createdAt,value
2023-03-27T13:48:22.150Z,22.04
2023-03-27T13:51:07.058Z,22.00
2023-03-27T13:54:55.174Z,20.06
2023-03-27T13:57:40.125Z,20.09
2023-03-27T14:00:25.087Z,20.00
2023-03-27T14:03:09.911Z,20.00
2023-03-27T14:05:56.902Z,19.97
2023-03-27T14:08:41.689Z,20.01
2023-03-27T14:11:26.517Z,19.97
2023-03-27T14:14:11.469Z,20.01
2023-03-27T14:16:56.171Z,20.05
2023-03-27T14:19:41.096Z,20.06
2023-03-27T14:22:25.861Z,20.07
2023-03-27T14:25:10.735Z,20.09
2023-03-27T14:27:55.694Z,20.63
2023-03-27T14:30:40.668Z,20.69
2023-03-27T14:33:25.654Z,20.64
2023-03-27T14:36:10.513Z,20.66
2023-03-27T14:38:55.393Z,20.76
2023-03-27T14:41:40.241Z,20.64
2023-03-27T14:44:25.110Z,20.74
2023-03-27T14:47:09.880Z,20.71
2023-03-27T14:49:54.737Z,20.64
2023-03-27T14:52:39.669Z,20.72
2023-03-27T14:55:24.600Z,20.71
2023-03-27T14:58:11.200Z,20.74
2023-03-27T15:00:56.075Z,20.70
2023-03-27T15:03:41.013Z,20.83
2023-03-27T15:06:25.922Z,20.89
2023-03-27T15:09:10.811Z,20.82
2023-03-27T15:11:55.767Z,20.81
2023-03-27T15:14:40.659Z,20.86
2023-03-27T15:17:25.636Z,20.82
2023-03-27T15:20:10.460Z,20.99
2023-03-27T15:22:55.477Z,20.95
2023-03-27T15:25:40.190Z,20.95
2023-03-27T15:28:25.185Z,20.86
2023-03-27T15:31:10.171Z,20.95
2023-03-27T15:33:54.971Z,21.18
2023-03-27T15:36:40.032Z,21.09
2023-03-27T15:39:24.869Z,21.22
2023-03-27T15:42:09.916Z,21.15
2023-03-27T15:44:54.746Z,21.27
2023-03-27T15:47:39.708Z,21.46
2023-03-27T15:50:24.477Z,21.55
2023-03-27T15:53:09.311Z,21.44
2023-03-27T15:55:54.153Z,21.48
2023-03-27T15:58:39.140Z,21.63
2023-03-27T16:01:24.113Z,21.60
2023-03-27T16:04:09.003Z,21.32
2023-03-27T16:06:53.734Z,21.25
2023-03-27T16:09:38.589Z,21.43
2023-03-27T16:12:23.710Z,21.30
2023-03-27T16:15:08.746Z,21.62
2023-03-27T16:17:53.585Z,21.47
2023-03-27T16:20:38.354Z,21.58
2023-03-27T16:23:23.254Z,21.84
2023-03-27T16:26:08.164Z,21.83
2023-03-27T16:28:53.002Z,21.78
2023-03-27T16:31:38.053Z,21.99
2023-03-27T16:34:23.765Z,21.76
2023-03-27T16:37:08.681Z,21.69
2023-03-27T16:39:53.556Z,21.71
2023-03-27T16:42:38.493Z,21.93
2023-03-27T16:45:23.400Z,21.90
2023-03-27T16:48:08.604Z,21.98
2023-03-27T16:50:53.337Z,21.91
2023-03-27T16:53:38.137Z,21.77
2023-03-27T16:56:23.133Z,21.84
2023-03-27T16:59:07.959Z,21.86
2023-03-27T17:01:52.961Z,21.95
2023-03-27T17:04:37.887Z,21.46
2023-03-27T17:07:22.779Z,21.67
2023-03-27T17:10:07.561Z,21.78
2023-03-27T17:12:52.564Z,21.81
2023-03-27T17:15:37.445Z,21.86
2023-03-27T17:18:22.375Z,21.74
2023-03-27T17:21:07.362Z,21.77
2023-03-27T17:23:52.185Z,21.84
2023-03-27T17:26:37.114Z,21.77
2023-03-27T17:29:21.925Z,21.78
2023-03-27T17:32:06.896Z,21.83
2023-03-27T17:34:51.636Z,21.79
2023-03-27T17:37:36.589Z,21.80
2023-03-27T17:40:21.508Z,21.72
2023-03-27T17:43:06.471Z,21.73
2023-03-27T17:45:51.336Z,21.75
2023-03-27T17:48:36.212Z,21.68
2023-03-27T17:51:21.362Z,21.71
2023-03-27T17:54:06.228Z,21.72
2023-03-27T17:56:51.236Z,21.19
2023-03-27T17:59:36.005Z,21.41
2023-03-27T18:02:20.927Z,21.21
2023-03-27T18:05:05.863Z,21.66
2023-03-27T18:07:50.691Z,21.75
2023-03-27T18:10:35.758Z,21.78
2023-03-27T18:13:20.583Z,21.78
2023-03-27T18:16:06.973Z,21.78
2023-03-27T18:18:51.845Z,21.76
2023-03-27T18:21:36.850Z,21.70
2023-03-27T18:24:21.814Z,21.75
2023-03-27T18:27:06.564Z,21.81
2023-03-27T18:29:51.652Z,21.68
2023-03-27T18:32:36.437Z,21.68
2023-03-27T18:35:21.426Z,21.72
2023-03-27T18:38:06.234Z,21.62
2023-03-27T18:40:51.239Z,21.69
2023-03-27T18:43:36.015Z,21.59
2023-03-27T18:46:20.845Z,21.70
2023-03-27T18:49:17.533Z,21.57
2023-03-27T18:52:06.710Z,21.61
2023-03-27T18:54:51.537Z,21.66
2023-03-27T18:57:36.438Z,21.62
2023-03-27T19:00:21.439Z,21.59
2023-03-27T19:03:06.356Z,21.59
2023-03-27T19:05:51.206Z,21.57
2023-03-27T19:08:36.059Z,21.52
2023-03-27T19:11:20.899Z,21.52
2023-03-27T19:14:05.823Z,21.55
2023-03-27T19:16:50.675Z,21.56
2023-03-27T19:19:35.509Z,21.48
2023-03-27T19:22:20.329Z,21.49
2023-03-27T19:25:05.241Z,21.45
2023-03-27T19:27:50.103Z,21.49
2023-03-27T19:30:35.145Z,21.41
2023-03-27T19:33:20.024Z,21.40
2023-03-27T19:36:04.999Z,21.45
2023-03-27T19:38:49.998Z,21.44
2023-03-27T19:41:34.860Z,21.45
2023-03-27T19:44:19.771Z,21.42
2023-03-27T19:47:04.665Z,21.44
2023-03-27T19:49:49.618Z,21.44
2023-03-27T19:52:34.441Z,21.42
2023-03-27T19:55:19.393Z,21.35
2023-03-27T19:58:04.205Z,21.40
2023-03-27T20:00:49.033Z,21.36
2023-03-27T20:03:33.985Z,21.32
2023-03-27T20:06:18.995Z,21.43
2023-03-27T20:09:04.038Z,21.34
2023-03-27T20:11:49.011Z,21.36
